sensor_id;sensor_type;location;lat;lon;timestamp;P1;durP1;ratioP1;P2;durP2;ratioP2
12852;SDS011;6495;51.808;7.478;2023-07-09T00:00:52;14.48;;;5.43;;
12852;SDS011;6495;51.808;7.478;2023-07-09T00:03:20;6.82;;;4.75;;
12852;SDS011;6495;51.808;7.478;2023-07-09T00:05:48;8.77;;;4.80;;
12852;SDS011;6495;51.808;7.478;2023-07-09T00:08:24;6.25;;;4.57;;
12852;SDS011;6495;51.808;7.478;2023-07-09T00:10:55;6.78;;;4.57;;
12852;SDS011;6495;51.808;7.478;2023-07-09T00:13:25;11.70;;;4.93;;
12852;SDS011;6495;51.808;7.478;2023-07-09T00:15:55;7.05;;;3.95;;
12852;SDS011;6495;51.808;7.478;2023-07-09T00:18:28;7.03;;;4.72;;
12852;SDS011;6495;51.808;7.478;2023-07-09T00:20:57;7.18;;;4.78;;
12852;SDS011;6495;51.808;7.478;2023-07-09T00:23:26;8.30;;;5.15;;
12852;SDS011;6495;51.808;7.478;2023-07-09T00:25:56;8.25;;;4.38;;
12852;SDS011;6495;51.808;7.478;2023-07-09T00:28:24;4.95;;;4.05;;
12852;SDS011;6495;51.808;7.478;2023-07-09T00:30:52;6.80;;;4.45;;
12852;SDS011;6495;51.808;7.478;2023-07-09T00:33:20;6.03;;;4.32;;
12852;SDS011;6495;51.808;7.478;2023-07-09T00:35:48;6.93;;;4.00;;
12852;SDS011;6495;51.808;7.478;2023-07-09T00:38:18;7.80;;;4.10;;
12852;SDS011;6495;51.808;7.478;2023-07-09T00:40:58;5.95;;;4.47;;
12852;SDS011;6495;51.808;7.478;2023-07-09T00:43:31;6.78;;;4.70;;
12852;SDS011;6495;51.808;7.478;2023-07-09T00:49:30;5.53;;;4.32;;
12852;SDS011;6495;51.808;7.478;2023-07-09T00:52:15;7.43;;;4.88;;
12852;SDS011;6495;51.808;7.478;2023-07-09T00:54:54;9.63;;;5.10;;
12852;SDS011;6495;51.808;7.478;2023-07-09T00:57:27;7.18;;;4.35;;
12852;SDS011;6495;51.808;7.478;2023-07-09T00:59:57;6.78;;;4.20;;
12852;SDS011;6495;51.808;7.478;2023-07-09T01:02:35;9.57;;;4.88;;
12852;SDS011;6495;51.808;7.478;2023-07-09T01:05:04;6.72;;;4.60;;
12852;SDS011;6495;51.808;7.478;2023-07-09T01:07:33;6.03;;;4.18;;
12852;SDS011;6495;51.808;7.478;2023-07-09T01:10:02;6.47;;;4.45;;
12852;SDS011;6495;51.808;7.478;2023-07-09T01:12:32;11.73;;;4.90;;
12852;SDS011;6495;51.808;7.478;2023-07-09T01:15:00;8.90;;;5.32;;
12852;SDS011;6495;51.808;7.478;2023-07-09T01:17:30;8.63;;;5.38;;
12852;SDS011;6495;51.808;7.478;2023-07-09T01:20:07;9.10;;;4.70;;
12852;SDS011;6495;51.808;7.478;2023-07-09T01:22:37;8.00;;;4.88;;
12852;SDS011;6495;51.808;7.478;2023-07-09T01:25:06;8.27;;;5.00;;
12852;SDS011;6495;51.808;7.478;2023-07-09T01:27:39;7.13;;;4.45;;
12852;SDS011;6495;51.808;7.478;2023-07-09T01:30:16;6.07;;;4.28;;
12852;SDS011;6495;51.808;7.478;2023-07-09T01:32:48;6.72;;;4.63;;
12852;SDS011;6495;51.808;7.478;2023-07-09T01:35:18;7.40;;;4.75;;
12852;SDS011;6495;51.808;7.478;2023-07-09T01:37:50;7.53;;;4.60;;
12852;SDS011;6495;51.808;7.478;2023-07-09T01:40:19;8.70;;;4.90;;
12852;SDS011;6495;51.808;7.478;2023-07-09T01:42:58;6.85;;;4.93;;
12852;SDS011;6495;51.808;7.478;2023-07-09T01:45:28;6.18;;;5.00;;
12852;SDS011;6495;51.808;7.478;2023-07-09T01:47:59;6.32;;;4.78;;
12852;SDS011;6495;51.808;7.478;2023-07-09T01:50:29;6.88;;;4.72;;
12852;SDS011;6495;51.808;7.478;2023-07-09T01:52:59;8.13;;;5.15;;
12852;SDS011;6495;51.808;7.478;2023-07-09T01:55:28;7.13;;;4.68;;
12852;SDS011;6495;51.808;7.478;2023-07-09T01:57:57;7.95;;;5.60;;
12852;SDS011;6495;51.808;7.478;2023-07-09T02:00:25;7.10;;;4.90;;
12852;SDS011;6495;51.808;7.478;2023-07-09T02:02:59;6.90;;;4.70;;
12852;SDS011;6495;51.808;7.478;2023-07-09T02:05:30;6.90;;;4.80;;
12852;SDS011;6495;51.808;7.478;2023-07-09T02:08:01;8.05;;;5.35;;
12852;SDS011;6495;51.808;7.478;2023-07-09T02:10:45;12.27;;;5.63;;
12852;SDS011;6495;51.808;7.478;2023-07-09T02:13:17;9.00;;;5.43;;
12852;SDS011;6495;51.808;7.478;2023-07-09T02:15:45;10.35;;;5.55;;
12852;SDS011;6495;51.808;7.478;2023-07-09T02:18:14;13.25;;;5.93;;
12852;SDS011;6495;51.808;7.478;2023-07-09T02:20:46;7.88;;;5.70;;
12852;SDS011;6495;51.808;7.478;2023-07-09T02:23:16;9.20;;;5.68;;
12852;SDS011;6495;51.808;7.478;2023-07-09T02:25:44;8.05;;;5.40;;
12852;SDS011;6495;51.808;7.478;2023-07-09T02:28:14;9.38;;;6.03;;
12852;SDS011;6495;51.808;7.478;2023-07-09T02:30:42;9.70;;;5.38;;
12852;SDS011;6495;51.808;7.478;2023-07-09T02:33:17;10.02;;;6.25;;
12852;SDS011;6495;51.808;7.478;2023-07-09T02:35:47;8.55;;;6.00;;
12852;SDS011;6495;51.808;7.478;2023-07-09T02:38:17;5.65;;;4.47;;
12852;SDS011;6495;51.808;7.478;2023-07-09T02:40:45;7.65;;;4.88;;
12852;SDS011;6495;51.808;7.478;2023-07-09T02:43:14;8.40;;;5.13;;
12852;SDS011;6495;51.808;7.478;2023-07-09T02:45:42;7.68;;;5.13;;
12852;SDS011;6495;51.808;7.478;2023-07-09T02:48:11;8.48;;;5.38;;
12852;SDS011;6495;51.808;7.478;2023-07-09T02:50:39;11.27;;;5.40;;
12852;SDS011;6495;51.808;7.478;2023-07-09T02:53:08;7.75;;;5.30;;
12852;SDS011;6495;51.808;7.478;2023-07-09T02:55:37;7.05;;;5.22;;
12852;SDS011;6495;51.808;7.478;2023-07-09T02:58:06;7.03;;;5.18;;
12852;SDS011;6495;51.808;7.478;2023-07-09T03:00:34;6.38;;;5.22;;
12852;SDS011;6495;51.808;7.478;2023-07-09T03:03:02;7.50;;;5.53;;
12852;SDS011;6495;51.808;7.478;2023-07-09T03:05:34;8.20;;;5.80;;
12852;SDS011;6495;51.808;7.478;2023-07-09T03:08:02;8.23;;;5.75;;
12852;SDS011;6495;51.808;7.478;2023-07-09T03:10:31;8.05;;;5.60;;
12852;SDS011;6495;51.808;7.478;2023-07-09T03:13:00;7.32;;;5.45;;
12852;SDS011;6495;51.808;7.478;2023-07-09T03:15:29;7.80;;;5.45;;
12852;SDS011;6495;51.808;7.478;2023-07-09T03:17:58;9.77;;;5.30;;
12852;SDS011;6495;51.808;7.478;2023-07-09T03:20:26;6.50;;;5.10;;
12852;SDS011;6495;51.808;7.478;2023-07-09T03:22:54;7.35;;;5.32;;
12852;SDS011;6495;51.808;7.478;2023-07-09T03:25:23;9.43;;;5.22;;
12852;SDS011;6495;51.808;7.478;2023-07-09T03:27:51;10.35;;;5.60;;
12852;SDS011;6495;51.808;7.478;2023-07-09T03:30:20;7.57;;;4.88;;
12852;SDS011;6495;51.808;7.478;2023-07-09T03:32:49;8.70;;;4.97;;
12852;SDS011;6495;51.808;7.478;2023-07-09T03:35:17;7.45;;;5.13;;
12852;SDS011;6495;51.808;7.478;2023-07-09T03:37:45;6.95;;;5.30;;
12852;SDS011;6495;51.808;7.478;2023-07-09T03:40:19;8.85;;;5.50;;
12852;SDS011;6495;51.808;7.478;2023-07-09T03:42:49;7.22;;;5.32;;
12852;SDS011;6495;51.808;7.478;2023-07-09T03:45:17;11.15;;;5.72;;
12852;SDS011;6495;51.808;7.478;2023-07-09T03:47:47;8.25;;;5.70;;
12852;SDS011;6495;51.808;7.478;2023-07-09T03:50:16;8.15;;;4.88;;
12852;SDS011;6495;51.808;7.478;2023-07-09T03:52:45;8.95;;;4.85;;
12852;SDS011;6495;51.808;7.478;2023-07-09T03:55:13;7.35;;;4.95;;
12852;SDS011;6495;51.808;7.478;2023-07-09T03:57:41;7.82;;;5.22;;
12852;SDS011;6495;51.808;7.478;2023-07-09T04:00:10;8.52;;;5.50;;
12852;SDS011;6495;51.808;7.478;2023-07-09T04:02:41;7.57;;;5.68;;
12852;SDS011;6495;51.808;7.478;2023-07-09T04:05:12;6.32;;;4.85;;
12852;SDS011;6495;51.808;7.478;2023-07-09T04:07:40;8.38;;;6.20;;
12852;SDS011;6495;51.808;7.478;2023-07-09T04:10:09;7.75;;;5.60;;
12852;SDS011;6495;51.808;7.478;2023-07-09T04:12:37;8.43;;;5.95;;
12852;SDS011;6495;51.808;7.478;2023-07-09T04:15:06;8.60;;;5.65;;
12852;SDS011;6495;51.808;7.478;2023-07-09T04:17:35;11.98;;;5.78;;
12852;SDS011;6495;51.808;7.478;2023-07-09T04:20:04;10.13;;;5.55;;
12852;SDS011;6495;51.808;7.478;2023-07-09T04:22:35;6.35;;;5.45;;
12852;SDS011;6495;51.808;7.478;2023-07-09T04:25:05;7.40;;;5.18;;
12852;SDS011;6495;51.808;7.478;2023-07-09T04:27:36;8.98;;;5.90;;
12852;SDS011;6495;51.808;7.478;2023-07-09T04:30:07;8.18;;;5.20;;
12852;SDS011;6495;51.808;7.478;2023-07-09T04:32:38;6.95;;;5.50;;
12852;SDS011;6495;51.808;7.478;2023-07-09T04:35:10;9.60;;;5.63;;
12852;SDS011;6495;51.808;7.478;2023-07-09T04:37:41;7.55;;;5.95;;
12852;SDS011;6495;51.808;7.478;2023-07-09T04:40:11;7.55;;;5.78;;
12852;SDS011;6495;51.808;7.478;2023-07-09T04:42:41;8.18;;;6.28;;
12852;SDS011;6495;51.808;7.478;2023-07-09T04:45:10;8.15;;;5.78;;
12852;SDS011;6495;51.808;7.478;2023-07-09T04:47:39;9.20;;;5.65;;
12852;SDS011;6495;51.808;7.478;2023-07-09T04:50:10;9.27;;;6.85;;
12852;SDS011;6495;51.808;7.478;2023-07-09T04:52:40;7.80;;;5.70;;
12852;SDS011;6495;51.808;7.478;2023-07-09T04:55:09;9.82;;;6.82;;
12852;SDS011;6495;51.808;7.478;2023-07-09T04:57:37;8.80;;;5.93;;
12852;SDS011;6495;51.808;7.478;2023-07-09T05:00:06;6.90;;;5.90;;
12852;SDS011;6495;51.808;7.478;2023-07-09T05:02:37;9.40;;;6.22;;
12852;SDS011;6495;51.808;7.478;2023-07-09T05:05:07;8.25;;;6.47;;
12852;SDS011;6495;51.808;7.478;2023-07-09T05:07:35;7.72;;;5.75;;
12852;SDS011;6495;51.808;7.478;2023-07-09T05:10:06;14.65;;;7.13;;
12852;SDS011;6495;51.808;7.478;2023-07-09T05:12:35;10.07;;;6.57;;
12852;SDS011;6495;51.808;7.478;2023-07-09T05:15:04;10.93;;;6.85;;
12852;SDS011;6495;51.808;7.478;2023-07-09T05:17:33;8.80;;;6.30;;
12852;SDS011;6495;51.808;7.478;2023-07-09T05:20:02;8.50;;;6.85;;
12852;SDS011;6495;51.808;7.478;2023-07-09T05:22:30;9.65;;;6.05;;
12852;SDS011;6495;51.808;7.478;2023-07-09T05:24:59;11.45;;;6.20;;
12852;SDS011;6495;51.808;7.478;2023-07-09T05:27:28;12.77;;;6.90;;
12852;SDS011;6495;51.808;7.478;2023-07-09T05:29:56;11.60;;;6.55;;
12852;SDS011;6495;51.808;7.478;2023-07-09T05:32:26;9.23;;;6.22;;
12852;SDS011;6495;51.808;7.478;2023-07-09T05:34:54;8.80;;;6.22;;
12852;SDS011;6495;51.808;7.478;2023-07-09T05:37:23;7.97;;;5.78;;
12852;SDS011;6495;51.808;7.478;2023-07-09T05:39:51;12.02;;;6.30;;
12852;SDS011;6495;51.808;7.478;2023-07-09T05:42:19;8.63;;;5.93;;
12852;SDS011;6495;51.808;7.478;2023-07-09T05:44:49;8.50;;;5.40;;
12852;SDS011;6495;51.808;7.478;2023-07-09T05:47:19;10.30;;;5.85;;
12852;SDS011;6495;51.808;7.478;2023-07-09T05:49:47;7.43;;;5.20;;
12852;SDS011;6495;51.808;7.478;2023-07-09T05:52:17;9.63;;;6.22;;
12852;SDS011;6495;51.808;7.478;2023-07-09T05:54:45;8.13;;;5.57;;
12852;SDS011;6495;51.808;7.478;2023-07-09T05:57:16;7.47;;;5.78;;
12852;SDS011;6495;51.808;7.478;2023-07-09T05:59:45;9.10;;;5.63;;
12852;SDS011;6495;51.808;7.478;2023-07-09T06:02:15;7.57;;;5.57;;
12852;SDS011;6495;51.808;7.478;2023-07-09T06:04:48;6.82;;;4.78;;
12852;SDS011;6495;51.808;7.478;2023-07-09T06:07:17;11.50;;;6.10;;
12852;SDS011;6495;51.808;7.478;2023-07-09T06:09:46;6.45;;;5.03;;
12852;SDS011;6495;51.808;7.478;2023-07-09T06:12:14;7.38;;;5.07;;
12852;SDS011;6495;51.808;7.478;2023-07-09T06:14:43;11.23;;;5.68;;
12852;SDS011;6495;51.808;7.478;2023-07-09T06:17:11;7.75;;;5.15;;
12852;SDS011;6495;51.808;7.478;2023-07-09T06:19:41;10.38;;;6.07;;
12852;SDS011;6495;51.808;7.478;2023-07-09T06:22:09;6.90;;;4.75;;
12852;SDS011;6495;51.808;7.478;2023-07-09T06:24:38;7.95;;;5.07;;
12852;SDS011;6495;51.808;7.478;2023-07-09T06:27:06;10.80;;;5.03;;
12852;SDS011;6495;51.808;7.478;2023-07-09T06:29:34;9.48;;;5.35;;
12852;SDS011;6495;51.808;7.478;2023-07-09T06:32:02;7.20;;;4.53;;
12852;SDS011;6495;51.808;7.478;2023-07-09T06:34:31;7.40;;;4.95;;
12852;SDS011;6495;51.808;7.478;2023-07-09T06:37:01;6.82;;;4.50;;
12852;SDS011;6495;51.808;7.478;2023-07-09T06:39:31;6.20;;;4.65;;
12852;SDS011;6495;51.808;7.478;2023-07-09T06:41:59;6.00;;;4.22;;
12852;SDS011;6495;51.808;7.478;2023-07-09T06:44:53;8.85;;;4.57;;
12852;SDS011;6495;51.808;7.478;2023-07-09T06:47:22;8.38;;;4.35;;
12852;SDS011;6495;51.808;7.478;2023-07-09T06:49:50;9.82;;;4.60;;
12852;SDS011;6495;51.808;7.478;2023-07-09T06:52:20;6.45;;;4.35;;
12852;SDS011;6495;51.808;7.478;2023-07-09T06:54:48;6.03;;;4.38;;
12852;SDS011;6495;51.808;7.478;2023-07-09T06:57:16;6.93;;;4.63;;
12852;SDS011;6495;51.808;7.478;2023-07-09T06:59:44;5.72;;;4.63;;
12852;SDS011;6495;51.808;7.478;2023-07-09T07:02:13;7.82;;;4.30;;
12852;SDS011;6495;51.808;7.478;2023-07-09T07:04:41;5.95;;;4.13;;
12852;SDS011;6495;51.808;7.478;2023-07-09T07:07:09;6.25;;;4.13;;
12852;SDS011;6495;51.808;7.478;2023-07-09T07:09:39;6.22;;;4.20;;
12852;SDS011;6495;51.808;7.478;2023-07-09T07:12:07;10.55;;;5.13;;
12852;SDS011;6495;51.808;7.478;2023-07-09T07:14:39;6.45;;;4.63;;
12852;SDS011;6495;51.808;7.478;2023-07-09T07:17:07;9.82;;;4.50;;
12852;SDS011;6495;51.808;7.478;2023-07-09T07:19:36;9.57;;;4.57;;
12852;SDS011;6495;51.808;7.478;2023-07-09T07:22:07;6.47;;;4.85;;
12852;SDS011;6495;51.808;7.478;2023-07-09T07:24:36;8.85;;;4.05;;
12852;SDS011;6495;51.808;7.478;2023-07-09T07:27:06;10.35;;;4.57;;
12852;SDS011;6495;51.808;7.478;2023-07-09T07:29:36;6.50;;;4.07;;
12852;SDS011;6495;51.808;7.478;2023-07-09T07:32:04;7.60;;;4.35;;
12852;SDS011;6495;51.808;7.478;2023-07-09T07:34:35;9.50;;;4.45;;
12852;SDS011;6495;51.808;7.478;2023-07-09T07:37:03;6.97;;;4.45;;
12852;SDS011;6495;51.808;7.478;2023-07-09T07:39:31;6.43;;;4.30;;
12852;SDS011;6495;51.808;7.478;2023-07-09T07:42:00;8.80;;;4.90;;
12852;SDS011;6495;51.808;7.478;2023-07-09T07:44:32;7.82;;;4.50;;
12852;SDS011;6495;51.808;7.478;2023-07-09T07:47:00;10.80;;;5.38;;
12852;SDS011;6495;51.808;7.478;2023-07-09T07:49:29;6.68;;;4.47;;
12852;SDS011;6495;51.808;7.478;2023-07-09T07:51:58;8.05;;;4.47;;
12852;SDS011;6495;51.808;7.478;2023-07-09T07:54:30;6.72;;;4.47;;
12852;SDS011;6495;51.808;7.478;2023-07-09T07:56:58;6.10;;;4.53;;
12852;SDS011;6495;51.808;7.478;2023-07-09T07:59:27;8.07;;;4.68;;
12852;SDS011;6495;51.808;7.478;2023-07-09T08:01:56;7.13;;;4.22;;
12852;SDS011;6495;51.808;7.478;2023-07-09T08:04:25;10.52;;;4.80;;
12852;SDS011;6495;51.808;7.478;2023-07-09T08:06:53;9.85;;;5.22;;
12852;SDS011;6495;51.808;7.478;2023-07-09T08:09:29;6.40;;;4.05;;
12852;SDS011;6495;51.808;7.478;2023-07-09T08:11:57;5.55;;;4.30;;
12852;SDS011;6495;51.808;7.478;2023-07-09T08:14:26;6.07;;;4.45;;
12852;SDS011;6495;51.808;7.478;2023-07-09T08:16:56;6.63;;;4.70;;
12852;SDS011;6495;51.808;7.478;2023-07-09T08:19:24;8.70;;;5.18;;
12852;SDS011;6495;51.808;7.478;2023-07-09T08:21:52;9.70;;;4.57;;
12852;SDS011;6495;51.808;7.478;2023-07-09T08:24:21;8.23;;;4.72;;
12852;SDS011;6495;51.808;7.478;2023-07-09T08:26:49;6.88;;;5.00;;
12852;SDS011;6495;51.808;7.478;2023-07-09T08:29:27;8.38;;;5.05;;
12852;SDS011;6495;51.808;7.478;2023-07-09T08:31:57;7.35;;;4.55;;
12852;SDS011;6495;51.808;7.478;2023-07-09T08:34:26;9.27;;;4.70;;
12852;SDS011;6495;51.808;7.478;2023-07-09T08:36:54;9.80;;;4.95;;
12852;SDS011;6495;51.808;7.478;2023-07-09T08:39:22;7.32;;;4.80;;
12852;SDS011;6495;51.808;7.478;2023-07-09T08:41:52;8.00;;;5.40;;
12852;SDS011;6495;51.808;7.478;2023-07-09T08:44:54;9.00;;;4.97;;
12852;SDS011;6495;51.808;7.478;2023-07-09T08:47:50;7.57;;;4.88;;
12852;SDS011;6495;51.808;7.478;2023-07-09T08:50:31;8.63;;;4.60;;
12852;SDS011;6495;51.808;7.478;2023-07-09T08:53:05;10.73;;;4.95;;
12852;SDS011;6495;51.808;7.478;2023-07-09T08:56:08;6.32;;;4.55;;
12852;SDS011;6495;51.808;7.478;2023-07-09T08:58:37;8.20;;;4.88;;
12852;SDS011;6495;51.808;7.478;2023-07-09T09:01:12;8.35;;;4.32;;
12852;SDS011;6495;51.808;7.478;2023-07-09T09:03:49;7.75;;;4.30;;
12852;SDS011;6495;51.808;7.478;2023-07-09T09:06:25;9.95;;;5.20;;
12852;SDS011;6495;51.808;7.478;2023-07-09T09:09:12;7.88;;;5.40;;
12852;SDS011;6495;51.808;7.478;2023-07-09T09:12:08;10.57;;;5.30;;
12852;SDS011;6495;51.808;7.478;2023-07-09T09:14:44;6.35;;;4.57;;
12852;SDS011;6495;51.808;7.478;2023-07-09T09:17:23;9.48;;;5.32;;
12852;SDS011;6495;51.808;7.478;2023-07-09T09:19:59;9.63;;;5.07;;
12852;SDS011;6495;51.808;7.478;2023-07-09T09:22:36;7.05;;;4.65;;
12852;SDS011;6495;51.808;7.478;2023-07-09T09:25:16;8.00;;;4.70;;
12852;SDS011;6495;51.808;7.478;2023-07-09T09:27:54;8.73;;;4.95;;
12852;SDS011;6495;51.808;7.478;2023-07-09T09:30:23;7.80;;;5.10;;
12852;SDS011;6495;51.808;7.478;2023-07-09T09:32:53;9.13;;;4.70;;
12852;SDS011;6495;51.808;7.478;2023-07-09T09:35:29;11.15;;;5.03;;
12852;SDS011;6495;51.808;7.478;2023-07-09T09:38:01;6.30;;;4.22;;
12852;SDS011;6495;51.808;7.478;2023-07-09T09:40:38;8.02;;;4.55;;
12852;SDS011;6495;51.808;7.478;2023-07-09T09:43:13;7.72;;;4.07;;
12852;SDS011;6495;51.808;7.478;2023-07-09T09:45:49;6.38;;;4.22;;
12852;SDS011;6495;51.808;7.478;2023-07-09T09:48:27;6.78;;;4.63;;
12852;SDS011;6495;51.808;7.478;2023-07-09T09:51:03;7.72;;;4.35;;
12852;SDS011;6495;51.808;7.478;2023-07-09T09:53:36;9.80;;;4.82;;
12852;SDS011;6495;51.808;7.478;2023-07-09T09:56:11;9.27;;;5.13;;
12852;SDS011;6495;51.808;7.478;2023-07-09T09:58:44;6.82;;;3.90;;
12852;SDS011;6495;51.808;7.478;2023-07-09T10:01:25;7.07;;;5.25;;
12852;SDS011;6495;51.808;7.478;2023-07-09T10:04:08;8.25;;;4.72;;
12852;SDS011;6495;51.808;7.478;2023-07-09T10:07:14;12.13;;;5.18;;
12852;SDS011;6495;51.808;7.478;2023-07-09T10:09:58;9.15;;;4.47;;
12852;SDS011;6495;51.808;7.478;2023-07-09T10:12:32;9.90;;;5.10;;
12852;SDS011;6495;51.808;7.478;2023-07-09T10:15:16;13.75;;;5.18;;
12852;SDS011;6495;51.808;7.478;2023-07-09T10:18:00;5.47;;;4.57;;
12852;SDS011;6495;51.808;7.478;2023-07-09T10:20:45;10.48;;;4.90;;
12852;SDS011;6495;51.808;7.478;2023-07-09T10:23:25;6.75;;;4.45;;
12852;SDS011;6495;51.808;7.478;2023-07-09T10:26:05;12.15;;;4.85;;
12852;SDS011;6495;51.808;7.478;2023-07-09T10:31:57;7.95;;;4.30;;
12852;SDS011;6495;51.808;7.478;2023-07-09T10:34:39;7.15;;;4.50;;
12852;SDS011;6495;51.808;7.478;2023-07-09T10:37:22;9.68;;;4.90;;
12852;SDS011;6495;51.808;7.478;2023-07-09T10:40:30;9.02;;;4.85;;
12852;SDS011;6495;51.808;7.478;2023-07-09T10:43:09;6.18;;;4.60;;
12852;SDS011;6495;51.808;7.478;2023-07-09T10:48:42;6.45;;;4.50;;
12852;SDS011;6495;51.808;7.478;2023-07-09T10:51:17;7.85;;;4.15;;
12852;SDS011;6495;51.808;7.478;2023-07-09T10:53:52;6.80;;;4.82;;
12852;SDS011;6495;51.808;7.478;2023-07-09T10:56:28;9.00;;;4.47;;
12852;SDS011;6495;51.808;7.478;2023-07-09T10:59:03;6.93;;;3.97;;
12852;SDS011;6495;51.808;7.478;2023-07-09T11:01:43;5.55;;;4.38;;
12852;SDS011;6495;51.808;7.478;2023-07-09T11:04:20;5.90;;;4.13;;
12852;SDS011;6495;51.808;7.478;2023-07-09T11:06:58;9.65;;;4.45;;
12852;SDS011;6495;51.808;7.478;2023-07-09T11:09:32;6.40;;;3.88;;
12852;SDS011;6495;51.808;7.478;2023-07-09T11:12:08;5.78;;;3.83;;
12852;SDS011;6495;51.808;7.478;2023-07-09T11:14:42;4.47;;;3.38;;
12852;SDS011;6495;51.808;7.478;2023-07-09T11:17:19;5.13;;;3.80;;
12852;SDS011;6495;51.808;7.478;2023-07-09T11:19:53;6.50;;;3.67;;
12852;SDS011;6495;51.808;7.478;2023-07-09T11:22:26;9.30;;;3.85;;
12852;SDS011;6495;51.808;7.478;2023-07-09T11:25:06;4.97;;;3.50;;
12852;SDS011;6495;51.808;7.478;2023-07-09T11:27:50;7.07;;;3.95;;
12852;SDS011;6495;51.808;7.478;2023-07-09T11:30:24;5.53;;;3.97;;
12852;SDS011;6495;51.808;7.478;2023-07-09T11:32:56;4.95;;;3.70;;
12852;SDS011;6495;51.808;7.478;2023-07-09T11:35:48;8.60;;;4.15;;
12852;SDS011;6495;51.808;7.478;2023-07-09T11:38:19;4.95;;;3.42;;
12852;SDS011;6495;51.808;7.478;2023-07-09T11:41:00;6.45;;;3.95;;
12852;SDS011;6495;51.808;7.478;2023-07-09T11:43:33;4.50;;;3.65;;
12852;SDS011;6495;51.808;7.478;2023-07-09T11:46:06;6.32;;;3.20;;
12852;SDS011;6495;51.808;7.478;2023-07-09T11:48:41;5.60;;;3.08;;
12852;SDS011;6495;51.808;7.478;2023-07-09T11:51:14;6.65;;;3.58;;
12852;SDS011;6495;51.808;7.478;2023-07-09T11:53:47;8.52;;;4.25;;
12852;SDS011;6495;51.808;7.478;2023-07-09T11:56:24;5.85;;;3.90;;
12852;SDS011;6495;51.808;7.478;2023-07-09T11:58:55;5.05;;;3.72;;
12852;SDS011;6495;51.808;7.478;2023-07-09T12:01:27;4.47;;;3.42;;
12852;SDS011;6495;51.808;7.478;2023-07-09T12:04:08;4.72;;;3.53;;
12852;SDS011;6495;51.808;7.478;2023-07-09T12:06:40;6.45;;;3.33;;
12852;SDS011;6495;51.808;7.478;2023-07-09T12:09:12;6.53;;;3.53;;
12852;SDS011;6495;51.808;7.478;2023-07-09T12:11:48;7.43;;;4.10;;
12852;SDS011;6495;51.808;7.478;2023-07-09T12:14:27;4.15;;;3.47;;
12852;SDS011;6495;51.808;7.478;2023-07-09T12:16:56;6.30;;;3.42;;
12852;SDS011;6495;51.808;7.478;2023-07-09T12:19:29;4.85;;;3.75;;
12852;SDS011;6495;51.808;7.478;2023-07-09T12:21:58;5.93;;;3.35;;
12852;SDS011;6495;51.808;7.478;2023-07-09T12:24:28;7.22;;;3.50;;
12852;SDS011;6495;51.808;7.478;2023-07-09T12:27:14;5.30;;;3.35;;
12852;SDS011;6495;51.808;7.478;2023-07-09T12:29:59;5.22;;;3.63;;
12852;SDS011;6495;51.808;7.478;2023-07-09T12:32:28;6.78;;;3.95;;
12852;SDS011;6495;51.808;7.478;2023-07-09T12:34:56;5.65;;;3.58;;
12852;SDS011;6495;51.808;7.478;2023-07-09T12:37:35;5.38;;;4.03;;
12852;SDS011;6495;51.808;7.478;2023-07-09T12:40:05;6.30;;;3.63;;
12852;SDS011;6495;51.808;7.478;2023-07-09T12:42:43;6.50;;;3.58;;
12852;SDS011;6495;51.808;7.478;2023-07-09T12:45:18;4.60;;;3.53;;
12852;SDS011;6495;51.808;7.478;2023-07-09T12:47:48;5.18;;;3.67;;
12852;SDS011;6495;51.808;7.478;2023-07-09T12:50:19;8.13;;;3.60;;
12852;SDS011;6495;51.808;7.478;2023-07-09T12:52:59;4.93;;;3.88;;
12852;SDS011;6495;51.808;7.478;2023-07-09T12:55:36;6.07;;;4.03;;
12852;SDS011;6495;51.808;7.478;2023-07-09T12:58:18;5.03;;;3.55;;
12852;SDS011;6495;51.808;7.478;2023-07-09T13:00:50;4.55;;;3.95;;
12852;SDS011;6495;51.808;7.478;2023-07-09T13:03:21;5.28;;;3.80;;
12852;SDS011;6495;51.808;7.478;2023-07-09T13:05:55;4.68;;;3.80;;
12852;SDS011;6495;51.808;7.478;2023-07-09T13:08:25;5.72;;;3.63;;
12852;SDS011;6495;51.808;7.478;2023-07-09T13:10:57;5.72;;;3.83;;
12852;SDS011;6495;51.808;7.478;2023-07-09T13:13:53;5.30;;;3.85;;
12852;SDS011;6495;51.808;7.478;2023-07-09T13:16:25;5.07;;;3.45;;
12852;SDS011;6495;51.808;7.478;2023-07-09T13:18:54;6.70;;;4.35;;
12852;SDS011;6495;51.808;7.478;2023-07-09T13:21:22;5.85;;;3.83;;
12852;SDS011;6495;51.808;7.478;2023-07-09T13:23:52;5.18;;;3.90;;
12852;SDS011;6495;51.808;7.478;2023-07-09T13:26:24;4.85;;;3.97;;
12852;SDS011;6495;51.808;7.478;2023-07-09T13:28:52;5.53;;;3.67;;
12852;SDS011;6495;51.808;7.478;2023-07-09T13:31:21;6.65;;;4.32;;
12852;SDS011;6495;51.808;7.478;2023-07-09T13:33:52;8.23;;;3.83;;
12852;SDS011;6495;51.808;7.478;2023-07-09T13:36:25;6.50;;;4.03;;
12852;SDS011;6495;51.808;7.478;2023-07-09T13:38:54;4.82;;;3.90;;
12852;SDS011;6495;51.808;7.478;2023-07-09T13:41:22;5.75;;;4.35;;
12852;SDS011;6495;51.808;7.478;2023-07-09T13:43:52;6.43;;;4.10;;
12852;SDS011;6495;51.808;7.478;2023-07-09T13:46:20;6.78;;;3.80;;
12852;SDS011;6495;51.808;7.478;2023-07-09T13:48:53;5.15;;;4.00;;
12852;SDS011;6495;51.808;7.478;2023-07-09T13:51:23;6.63;;;3.90;;
12852;SDS011;6495;51.808;7.478;2023-07-09T13:53:52;8.10;;;3.78;;
12852;SDS011;6495;51.808;7.478;2023-07-09T13:56:24;6.05;;;3.50;;
12852;SDS011;6495;51.808;7.478;2023-07-09T13:58:52;5.90;;;4.07;;
12852;SDS011;6495;51.808;7.478;2023-07-09T14:01:21;7.57;;;4.40;;
12852;SDS011;6495;51.808;7.478;2023-07-09T14:03:52;13.23;;;4.60;;
12852;SDS011;6495;51.808;7.478;2023-07-09T14:06:25;7.40;;;4.07;;
12852;SDS011;6495;51.808;7.478;2023-07-09T14:08:53;6.40;;;3.90;;
12852;SDS011;6495;51.808;7.478;2023-07-09T14:11:22;4.68;;;3.85;;
12852;SDS011;6495;51.808;7.478;2023-07-09T14:13:50;5.00;;;3.83;;
12852;SDS011;6495;51.808;7.478;2023-07-09T14:16:19;4.82;;;3.88;;
12852;SDS011;6495;51.808;7.478;2023-07-09T14:18:47;7.28;;;4.60;;
12852;SDS011;6495;51.808;7.478;2023-07-09T14:21:20;9.02;;;4.00;;
12852;SDS011;6495;51.808;7.478;2023-07-09T14:23:53;4.88;;;3.50;;
12852;SDS011;6495;51.808;7.478;2023-07-09T14:26:22;6.28;;;3.95;;
12852;SDS011;6495;51.808;7.478;2023-07-09T14:28:50;7.28;;;4.18;;
12852;SDS011;6495;51.808;7.478;2023-07-09T14:31:21;3.92;;;3.53;;
12852;SDS011;6495;51.808;7.478;2023-07-09T14:33:56;5.68;;;4.00;;
12852;SDS011;6495;51.808;7.478;2023-07-09T14:36:47;7.78;;;3.95;;
12852;SDS011;6495;51.808;7.478;2023-07-09T14:39:16;5.43;;;3.67;;
12852;SDS011;6495;51.808;7.478;2023-07-09T14:41:45;4.93;;;3.70;;
12852;SDS011;6495;51.808;7.478;2023-07-09T14:44:24;6.88;;;3.88;;
12852;SDS011;6495;51.808;7.478;2023-07-09T14:46:56;7.72;;;3.90;;
12852;SDS011;6495;51.808;7.478;2023-07-09T14:49:27;5.30;;;3.42;;
12852;SDS011;6495;51.808;7.478;2023-07-09T14:51:59;5.55;;;4.13;;
12852;SDS011;6495;51.808;7.478;2023-07-09T14:54:28;5.05;;;4.32;;
12852;SDS011;6495;51.808;7.478;2023-07-09T14:56:58;6.47;;;4.10;;
12852;SDS011;6495;51.808;7.478;2023-07-09T14:59:26;6.20;;;3.97;;
12852;SDS011;6495;51.808;7.478;2023-07-09T15:01:54;5.20;;;4.03;;
12852;SDS011;6495;51.808;7.478;2023-07-09T15:04:27;12.13;;;4.32;;
12852;SDS011;6495;51.808;7.478;2023-07-09T15:07:01;8.65;;;4.30;;
12852;SDS011;6495;51.808;7.478;2023-07-09T15:09:29;6.55;;;3.80;;
12852;SDS011;6495;51.808;7.478;2023-07-09T15:12:04;7.90;;;4.25;;
12852;SDS011;6495;51.808;7.478;2023-07-09T15:14:43;9.07;;;4.07;;
12852;SDS011;6495;51.808;7.478;2023-07-09T15:17:12;4.75;;;3.60;;
12852;SDS011;6495;51.808;7.478;2023-07-09T15:19:40;5.18;;;4.03;;
12852;SDS011;6495;51.808;7.478;2023-07-09T15:22:16;5.00;;;3.90;;
12852;SDS011;6495;51.808;7.478;2023-07-09T15:24:55;6.03;;;3.97;;
12852;SDS011;6495;51.808;7.478;2023-07-09T15:27:23;6.88;;;4.35;;
12852;SDS011;6495;51.808;7.478;2023-07-09T15:29:51;11.70;;;4.10;;
12852;SDS011;6495;51.808;7.478;2023-07-09T15:32:21;5.40;;;3.83;;
12852;SDS011;6495;51.808;7.478;2023-07-09T15:34:49;6.75;;;4.00;;
12852;SDS011;6495;51.808;7.478;2023-07-09T15:37:19;10.13;;;4.20;;
12852;SDS011;6495;51.808;7.478;2023-07-09T15:39:47;5.57;;;3.70;;